Sandy, OR (97055)

4:46 PM PST on February 11, 2016 (GMT -0800)
Davis St - Gary St. | | Change Station
CLOSE
Current Station
Personal Weather Station
Location: Sandy, OR
Elevation: 1037 ft
Nearby Weather Stations

Elev 1037 ft 45.39 °N, 122.25 °W | Updated 11 minutes ago

Overcast
Overcast
52.0 °F
Feels Like 52.0 °F
N
3.2
Wind Variable Wind from ENE

Today
High -- | Low -- °F
--% Chance of Precip.
Yesterday
High -- | Low -- °F
Precip. -- in
Pressure 30.13 in
Visibility 3.0 miles
Clouds Scattered Clouds 7500 ft
Overcast 9000 ft
Dew Point 52 °F
Humidity 98%
Rainfall 0.15 in
Snow Depth Not available.
7:16 AM 5:29 PM
Waxing Crescent, 15% visible
METAR KTTD 112353Z 09022G28KT 3SM RA SCT075 OVC090 11/07 A3013 RMK AO2 PK WND 09028/2351 SLP203 P0008 60008 T01060072 10133 20106 55001
Pressure 30.13 in
Visibility 3.0 miles
Clouds Scattered Clouds 7500 ft
Overcast 9000 ft
Dew Point 52 °F
Humidity 98%
Rainfall 0.15 in
Snow Depth Not available.
7:16 AM 5:29 PM
Waxing Crescent, 15% visible
METAR KTTD 112353Z 09022G28KT 3SM RA SCT075 OVC090 11/07 A3013 RMK AO2 PK WND 09028/2351 SLP203 P0008 60008 T01060072 10133 20106 55001

10-Day Weather Forecast

Almanac

Astronomy

Feb. 11, 2016 Rise Set
Actual Time
Civil Twilight
Nautical Twilight
Astronomical Twilight
Moon
Length of Visible Light
Length of Day
Tomorrow will be .
, % of the Moon is Illuminated

Today's Extremes

State Highs State Lows

Community

WunderPhotos

Upload Photos

1,892,195 photos uploaded!

WunderBlog® & News

Nearby

Air Quality

  Air Quality AQ Index Pollutant
Not available.

Snow Depth

Station Depth Elevation

Earthquake Activity

City Distance Mag. Time & Date
Minimum magnitude displayed is 2.5.

Coastal Water Temperatures

Place Temperature

Stations

Nearby Weather Stations

Station Location Temp. Windchill Dew Point Humidity Wind Precip. Elev Updated Type
                   

Watches & Warnings

There are currently no watches in effect.